This is the latest recevied weather packets stored in our database for station/object YD6HRD-13. If no packets are shown the sender has not sent any weather packets the latest 1 day(s).
| Time | Temp. | Humidity | Pressure | Rain* | Wind** | Luminosity | Snow |
|---|---|---|---|---|---|---|---|
| 1778059943 | 30.56° C | 83% | 1016.1 hPa | - | - | - | - |
| 1778059343 | 30.56° C | 84% | 1016 hPa | - | - | - | - |
| 1778058743 | 30° C | 85% | 1015.8 hPa | - | - | - | - |
| 1778058144 | 31.67° C | 82% | 1015.6 hPa | - | - | - | - |
| 1778057843 | 31.11° C | 82% | 1015.6 hPa | - | - | - | - |
| 1778057244 | 31.11° C | 83% | 1015.5 hPa | - | - | - | - |
| 1778056643 | 30.56° C | 84% | 1015.7 hPa | - | - | - | - |
| 1778056344 | 30.56° C | 84% | 1015.7 hPa | - | - | - | - |
| 1778056043 | 30° C | 85% | 1015.8 hPa | - | - | - | - |
| 1778055443 | 31.11° C | 82% | 1016 hPa | - | - | - | - |
| 1778054543 | 31.11° C | 82% | 1016.3 hPa | - | - | - | - |
| 1778053343 | 31.67° C | 80% | 1016.7 hPa | - | - | - | - |
| 1778052743 | 30.56° C | 81% | 1016.9 hPa | - | - | - | - |
| 1778052143 | 30.56° C | 81% | 1017.1 hPa | - | - | - | - |
| 1778051243 | 31.67° C | 80% | 1017.4 hPa | - | - | - | - |
| 1778050944 | 30.56° C | 82% | 1017.6 hPa | - | - | - | - |
| 1778050643 | 31.67° C | 80% | 1017.6 hPa | - | - | - | - |
| 1778050043 | 31.11° C | 80% | 1017.8 hPa | - | - | - | - |
| 1778049143 | 31.11° C | 80% | 1018.1 hPa | - | - | - | - |
| 1778048843 | 31.67° C | 77% | 1018.1 hPa | - | - | - | - |
| 1778048543 | 31.67° C | 78% | 1018.2 hPa | - | - | - | - |
| 1778047943 | 31.67° C | 79% | 1018.5 hPa | - | - | - | - |
| 1778047643 | 31.67° C | 79% | 1018.5 hPa | - | - | - | - |
| 1778047344 | 31.67° C | 79% | 1018.6 hPa | - | - | - | - |
| 1778047043 | 31.67° C | 80% | 1018.7 hPa | - | - | - | - |
* Rain since midnight (hover to see other rain measurements)
** Current wind speed in m/s (hover to see current wind gust speed)